Time;durP1;ratioP1;P1;durP2;ratioP2;P2;SDS_P1;SDS_P2;PMS_P1;PMS_P2;Temp;Humidity;BMP_temperature;BMP_pressure;BME280_temperature;BME280_humidity;BME280_pressure;Samples;Min_cycle;Max_cycle;Signal;HPM_P1;HPM_P2
2021/06/20 00:00:28;;;;;;;4.10;1.80;;;;;;;22.08;62.17;99668.54;129641;1093;113644;-65
2021/06/20 00:02:56;;;;;;;7.98;2.20;;;;;;;22.04;62.06;99680.66;129762;1092;22561;-65
2021/06/20 00:05:35;;;;;;;6.30;1.90;;;;;;;21.98;62.23;99666.09;129271;1092;23353;-65
2021/06/20 00:08:09;;;;;;;6.03;1.80;;;;;;;21.98;62.41;99684.70;129687;1093;113721;-65
2021/06/20 00:10:38;;;;;;;8.50;2.45;;;;;;;21.95;62.34;99682.58;129729;1093;22712;-65
2021/06/20 00:13:06;;;;;;;7.25;1.95;;;;;;;21.94;62.68;99686.50;129677;1093;113551;-65
2021/06/20 00:15:55;;;;;;;8.73;2.18;;;;;;;21.91;62.60;99689.95;129722;1093;22527;-65
2021/06/20 00:18:23;;;;;;;8.20;2.20;;;;;;;21.87;62.62;99682.28;129705;1093;113763;-65
2021/06/20 00:20:52;;;;;;;7.55;2.25;;;;;;;21.85;62.77;99687.34;130031;1093;22536;-65
2021/06/20 00:23:20;;;;;;;10.73;2.00;;;;;;;21.84;62.75;99695.98;129796;1092;22552;-65
2021/06/20 00:25:48;;;;;;;4.83;2.03;;;;;;;21.80;62.87;99683.91;129729;1093;113933;-65
2021/06/20 00:28:17;;;;;;;2.80;1.80;;;;;;;21.77;62.92;99687.36;129900;1093;22561;-65
2021/06/20 00:30:45;;;;;;;4.23;2.20;;;;;;;21.75;63.25;99678.55;129819;1093;113543;-65
2021/06/20 00:33:14;;;;;;;2.88;1.70;;;;;;;21.72;63.34;99679.20;129777;1092;22523;-65
2021/06/20 00:35:42;;;;;;;8.18;2.65;;;;;;;21.68;63.44;99689.31;129766;1093;115944;-64
2021/06/20 00:38:10;;;;;;;8.50;1.80;;;;;;;21.65;63.47;99684.41;129886;1093;22541;-65
2021/06/20 00:40:38;;;;;;;3.05;2.00;;;;;;;21.63;63.63;99689.50;129875;1093;22538;-65
2021/06/20 00:43:07;;;;;;;4.45;1.65;;;;;;;21.59;63.70;99688.52;129671;1093;113570;-65
2021/06/20 00:45:35;;;;;;;6.33;2.05;;;;;;;21.56;63.69;99689.16;129913;1093;22520;-65
2021/06/20 00:48:04;;;;;;;5.75;2.00;;;;;;;21.53;63.85;99691.44;129659;1093;113756;-65
2021/06/20 00:50:32;;;;;;;6.30;2.15;;;;;;;21.51;63.99;99696.49;129997;1093;23657;-65
2021/06/20 00:53:01;;;;;;;7.50;2.20;;;;;;;21.48;63.90;99686.08;129828;1093;23217;-65
2021/06/20 00:55:34;;;;;;;4.10;1.90;;;;;;;21.46;64.34;99682.81;129699;1092;113606;-65
2021/06/20 00:58:03;;;;;;;7.50;2.95;;;;;;;21.44;64.41;99695.36;129855;1093;22585;-65
2021/06/20 01:00:33;;;;;;;6.20;2.10;;;;;;;21.42;64.18;99695.69;129851;1093;113624;-65
2021/06/20 01:03:06;;;;;;;5.93;1.93;;;;;;;21.39;64.23;99704.64;129771;1093;22654;-65
2021/06/20 01:05:34;;;;;;;5.40;1.83;;;;;;;21.39;64.27;99709.38;129838;1092;23373;-64
2021/06/20 01:08:03;;;;;;;5.50;2.30;;;;;;;21.38;64.47;99707.73;129794;1093;113393;-65
2021/06/20 01:10:35;;;;;;;4.50;2.23;;;;;;;21.37;64.73;99706.92;129898;1092;22603;-65
2021/06/20 01:13:06;;;;;;;6.80;2.30;;;;;;;21.35;64.68;99708.41;129753;1093;113720;-65
2021/06/20 01:15:35;;;;;;;8.58;2.28;;;;;;;21.33;64.78;99700.42;129901;1092;22600;-65
2021/06/20 01:18:04;;;;;;;6.70;2.23;;;;;;;21.33;64.65;99699.61;129696;1093;113778;-65
2021/06/20 01:20:33;;;;;;;4.25;1.88;;;;;;;21.31;64.58;99702.70;129834;1093;22692;-65
2021/06/20 01:23:01;;;;;;;6.40;2.28;;;;;;;21.30;64.75;99712.15;129800;1093;22609;-65
2021/06/20 01:25:30;;;;;;;5.45;1.83;;;;;;;21.29;64.65;99715.24;129767;1093;113610;-65
2021/06/20 01:28:03;;;;;;;7.38;1.88;;;;;;;21.29;64.67;99716.06;129830;1092;23162;-65
2021/06/20 01:30:35;;;;;;;3.50;1.88;;;;;;;21.28;64.66;99725.52;129589;1092;113761;-65
2021/06/20 01:33:06;;;;;;;6.88;2.03;;;;;;;21.28;64.94;99722.73;129830;1092;22588;-65
2021/06/20 01:35:35;;;;;;;5.63;1.90;;;;;;;21.28;64.47;99724.69;129845;1092;22511;-65
2021/06/20 01:38:05;;;;;;;7.63;2.63;;;;;;;21.28;64.52;99731.05;129790;1093;113336;-65
2021/06/20 01:40:34;;;;;;;10.55;2.00;;;;;;;21.28;64.41;99731.05;129764;1093;22649;-65
2021/06/20 01:43:02;;;;;;;3.03;1.90;;;;;;;21.29;64.43;99740.19;129794;1092;114013;-65
2021/06/20 01:45:31;;;;;;;4.85;2.18;;;;;;;21.28;64.34;99736.59;129865;1093;22567;-65
2021/06/20 01:47:59;;;;;;;9.00;1.98;;;;;;;21.27;64.42;99729.42;129713;1093;113776;-65
2021/06/20 01:50:28;;;;;;;6.08;1.88;;;;;;;21.28;64.29;99727.47;129792;1093;23169;-65
2021/06/20 01:53:15;;;;;;;3.95;1.90;;;;;;;21.26;64.40;99729.73;129836;1093;22741;-65
2021/06/20 01:55:45;;;;;;;6.38;1.80;;;;;;;21.24;64.32;99716.20;129722;1092;113594;-65
2021/06/20 01:58:18;;;;;;;4.28;2.08;;;;;;;21.23;64.39;99719.30;129884;1093;23720;-65
2021/06/20 02:00:49;;;;;;;3.98;2.00;;;;;;;21.21;64.44;99725.16;129718;1092;114123;-65
2021/06/20 02:03:19;;;;;;;5.13;2.68;;;;;;;21.22;64.42;99725.97;129867;1093;22576;-65
2021/06/20 02:05:48;;;;;;;3.03;1.88;;;;;;;21.21;64.46;99719.62;129654;1092;113711;-65
2021/06/20 02:08:20;;;;;;;7.35;2.23;;;;;;;21.21;64.21;99719.62;129822;1093;23605;-65
2021/06/20 02:10:49;;;;;;;6.00;1.93;;;;;;;21.21;64.20;99710.52;129814;1093;22795;-65
2021/06/20 02:13:19;;;;;;;4.75;2.10;;;;;;;21.20;64.40;99709.70;129667;1092;113590;-65
2021/06/20 02:15:55;;;;;;;15.10;2.78;;;;;;;21.22;64.46;99704.63;129792;1093;22550;-66
2021/06/20 02:18:24;;;;;;;11.18;2.20;;;;;;;21.23;64.40;99700.71;129723;1093;113964;-66
2021/06/20 02:20:55;;;;;;;9.83;2.15;;;;;;;21.26;64.79;99707.57;129840;1093;22597;-65
2021/06/20 02:23:24;;;;;;;5.13;1.83;;;;;;;21.27;64.22;99709.20;129811;1092;22626;-66
2021/06/20 02:25:53;;;;;;;6.43;2.33;;;;;;;21.27;64.09;99709.20;129750;1092;113678;-64
2021/06/20 02:28:22;;;;;;;8.33;2.10;;;;;;;21.26;64.10;99708.38;129853;1093;22586;-65
2021/06/20 02:30:50;;;;;;;8.13;2.58;;;;;;;21.28;64.13;99705.30;129728;1093;113588;-65
2021/06/20 02:33:18;;;;;;;3.43;2.10;;;;;;;21.27;64.29;99701.70;129768;1093;22548;-65
2021/06/20 02:35:47;;;;;;;3.43;1.88;;;;;;;21.26;64.11;99697.30;129729;1092;113671;-66
2021/06/20 02:38:16;;;;;;;7.35;1.95;;;;;;;21.26;63.89;99696.48;129775;1093;22684;-65
2021/06/20 02:40:44;;;;;;;7.28;1.88;;;;;;;21.26;64.04;99704.80;129774;1092;22549;-65
2021/06/20 02:43:13;;;;;;;2.45;1.85;;;;;;;21.23;64.20;99705.44;129702;1093;113544;-66
2021/06/20 02:45:42;;;;;;;7.00;2.58;;;;;;;21.21;64.18;99702.20;128888;1092;22806;-65
2021/06/20 02:48:10;;;;;;;2.95;1.73;;;;;;;21.20;64.46;99698.62;129601;1092;114024;-65
2021/06/20 02:50:45;;;;;;;5.35;1.93;;;;;;;21.20;64.40;99698.62;129816;1093;22558;-65
2021/06/20 02:53:14;;;;;;;5.40;2.30;;;;;;;21.19;64.19;99702.52;129782;1093;22534;-66
2021/06/20 02:55:44;;;;;;;5.15;2.00;;;;;;;21.18;64.28;99703.63;129741;1093;113656;-65
2021/06/20 02:58:13;;;;;;;7.43;1.70;;;;;;;21.17;64.48;99702.00;129750;1092;22630;-65
2021/06/20 03:00:41;;;;;;;6.03;2.13;;;;;;;21.18;64.63;99693.36;129748;1093;113570;-65
2021/06/20 03:03:09;;;;;;;7.70;1.98;;;;;;;21.19;64.73;99691.44;129765;1093;22540;-65
2021/06/20 03:05:38;;;;;;;4.13;2.20;;;;;;;21.21;64.42;99691.91;129853;1092;22528;-65
2021/06/20 03:08:08;;;;;;;5.00;2.08;;;;;;;21.22;64.63;99693.53;129702;1092;113807;-65
2021/06/20 03:10:37;;;;;;;5.98;2.10;;;;;;;21.23;64.51;99689.63;129839;1093;22535;-65
2021/06/20 03:13:08;;;;;;;11.00;2.10;;;;;;;21.24;64.39;99690.45;129697;1093;113547;-65
2021/06/20 03:15:38;;;;;;;5.30;1.90;;;;;;;21.25;64.15;99701.20;128888;1093;26268;-66
2021/06/20 03:18:07;;;;;;;5.25;2.48;;;;;;;21.26;64.05;99696.48;124992;1093;114193;-66
2021/06/20 03:20:35;;;;;;;4.90;1.95;;;;;;;21.24;64.15;99712.61;125204;1093;22783;-66
2021/06/20 03:23:07;;;;;;;8.20;2.33;;;;;;;21.23;64.04;99720.11;125213;1093;22778;-66
2021/06/20 03:25:39;;;;;;;3.98;2.00;;;;;;;21.20;63.92;99720.78;125055;1093;114069;-66
2021/06/20 03:28:08;;;;;;;4.93;1.58;;;;;;;21.18;63.82;99723.03;125078;1093;24179;-65
2021/06/20 03:30:36;;;;;;;4.90;1.93;;;;;;;21.15;63.38;99730.03;129529;1092;113832;-64
2021/06/20 03:33:05;;;;;;;2.03;1.88;;;;;;;21.13;63.58;99737.02;129823;1093;23341;-64
2021/06/20 03:35:34;;;;;;;4.73;1.98;;;;;;;21.11;63.77;99744.84;129854;1092;22596;-64
2021/06/20 03:38:02;;;;;;;3.60;2.20;;;;;;;21.10;63.83;99746.80;129730;1092;113881;-64
2021/06/20 03:40:30;;;;;;;6.35;2.10;;;;;;;21.10;63.99;99735.71;129788;1092;23735;-64
2021/06/20 03:42:59;;;;;;;3.43;1.73;;;;;;;21.10;63.91;99737.66;129706;1093;113802;-65
2021/06/20 03:45:28;;;;;;;5.25;1.90;;;;;;;21.11;64.00;99739.30;129184;1093;22599;-64
2021/06/20 03:47:57;;;;;;;9.75;1.60;;;;;;;21.10;64.04;99729.34;125149;1092;114039;-64
2021/06/20 03:50:26;;;;;;;5.28;2.10;;;;;;;21.11;63.77;99725.44;125153;1093;22804;-64
2021/06/20 03:52:55;;;;;;;7.55;1.58;;;;;;;21.12;63.45;99718.77;125274;1093;22806;-65
2021/06/20 03:55:23;;;;;;;5.18;2.10;;;;;;;21.12;63.65;99711.27;124883;1093;114191;-64
2021/06/20 03:57:52;;;;;;;7.35;2.23;;;;;;;21.14;63.95;99702.64;125245;1092;22805;-64
2021/06/20 04:00:20;;;;;;;4.48;1.75;;;;;;;21.14;63.68;99705.41;124973;1093;114478;-65
2021/06/20 04:02:48;;;;;;;9.83;2.40;;;;;;;21.14;63.47;99692.38;129799;1093;22729;-66
2021/06/20 04:05:17;;;;;;;3.63;1.98;;;;;;;21.15;63.31;99707.86;129757;1093;22567;-66
2021/06/20 04:07:45;;;;;;;4.43;2.00;;;;;;;21.17;63.29;99713.08;129833;1093;114404;-66
2021/06/20 04:10:14;;;;;;;4.33;2.03;;;;;;;21.19;63.00;99702.52;129861;1093;22604;-65
2021/06/20 04:12:42;;;;;;;6.45;1.75;;;;;;;21.21;63.00;99702.20;129975;1090;114184;-65
2021/06/20 04:15:30;;;;;;;7.08;1.83;;;;;;;21.23;62.45;99691.58;129358;1090;22800;-65
2021/06/20 04:17:59;;;;;;;5.33;1.65;;;;;;;21.25;62.27;99676.27;129946;1090;113783;-64
2021/06/20 04:20:27;;;;;;;5.90;2.68;;;;;;;21.27;62.35;99675.95;130008;1090;22684;-65
2021/06/20 04:22:55;;;;;;;4.88;1.63;;;;;;;21.28;62.23;99672.03;130081;1089;22650;-65
2021/06/20 04:25:24;;;;;;;4.38;1.90;;;;;;;21.30;62.51;99673.34;129985;1092;113785;-65
2021/06/20 04:27:54;;;;;;;3.53;1.83;;;;;;;21.32;62.33;99675.80;130073;1090;22564;-64
2021/06/20 04:30:23;;;;;;;9.63;2.33;;;;;;;21.33;62.16;99674.66;130006;1090;113926;-65
2021/06/20 04:32:52;;;;;;;6.55;2.48;;;;;;;21.34;62.31;99667.98;130056;1089;22553;-64
2021/06/20 04:35:22;;;;;;;5.38;1.95;;;;;;;21.37;62.39;99667.30;130089;1090;22632;-65
2021/06/20 04:37:51;;;;;;;4.25;2.18;;;;;;;21.39;62.56;99665.84;129953;1090;113987;-65
2021/06/20 04:40:21;;;;;;;4.25;2.25;;;;;;;21.43;62.63;99654.92;130087;1090;22533;-65
2021/06/20 04:43:05;;;;;;;6.63;2.00;;;;;;;21.46;62.84;99662.59;129951;1088;113961;-65
2021/06/20 04:45:34;;;;;;;7.90;2.20;;;;;;;21.48;62.49;99663.90;130097;1090;22643;-66
2021/06/20 04:48:03;;;;;;;9.10;2.25;;;;;;;21.49;62.56;99659.98;129905;1089;113911;-65
2021/06/20 04:50:31;;;;;;;10.15;2.40;;;;;;;21.50;62.70;99666.31;130057;1090;24587;-65
2021/06/20 04:53:01;;;;;;;5.25;2.45;;;;;;;21.51;62.90;99671.53;130022;1090;22588;-65
2021/06/20 04:55:29;;;;;;;5.55;2.20;;;;;;;21.51;62.89;99671.53;129968;1090;113853;-65
2021/06/20 04:57:57;;;;;;;13.15;2.65;;;;;;;21.51;62.81;99667.95;130068;1088;22571;-65
2021/06/20 05:00:25;;;;;;;5.03;3.18;;;;;;;21.52;62.98;99661.27;129992;1090;114104;-65
2021/06/20 05:02:54;;;;;;;5.43;2.65;;;;;;;21.52;62.97;99664.85;130045;1090;22555;-65
2021/06/20 05:05:22;;;;;;;7.23;2.30;;;;;;;21.53;62.86;99666.48;130107;1090;22504;-65
2021/06/20 05:07:51;;;;;;;4.83;1.98;;;;;;;21.53;62.67;99663.71;129973;1090;114167;-65
2021/06/20 05:10:19;;;;;;;10.20;2.40;;;;;;;21.55;63.11;99668.94;130084;1090;22565;-66
2021/06/20 05:12:48;;;;;;;7.65;2.30;;;;;;;21.58;63.05;99667.47;129948;1090;113923;-65
2021/06/20 05:15:16;;;;;;;4.05;2.48;;;;;;;21.63;63.32;99657.04;130091;1088;22660;-67
2021/06/20 05:17:45;;;;;;;6.98;2.13;;;;;;;21.73;63.07;99664.20;130037;1090;22587;-66
2021/06/20 05:20:14;;;;;;;6.28;2.30;;;;;;;21.81;62.74;99666.94;129974;1090;113479;-66
2021/06/20 05:22:42;;;;;;;4.98;2.30;;;;;;;21.91;62.72;99656.66;130070;1090;23323;-69
2021/06/20 05:25:11;;;;;;;7.30;2.13;;;;;;;22.00;61.91;99646.38;129972;1088;113312;-67
2021/06/20 05:27:39;;;;;;;4.70;2.67;;;;;;;22.09;62.44;99652.70;130095;1090;22585;-68
2021/06/20 05:30:08;;;;;;;6.90;2.45;;;;;;;22.17;62.00;99640.78;129992;1089;113828;-68
2021/06/20 05:32:37;;;;;;;4.03;2.10;;;;;;;22.30;61.43;99641.70;130081;1091;22659;-67
2021/06/20 05:35:06;;;;;;;8.10;2.40;;;;;;;22.48;60.62;99641.30;130003;1090;22675;-66
2021/06/20 05:37:34;;;;;;;2.80;2.00;;;;;;;22.67;60.22;99654.75;129968;1090;113786;-66
2021/06/20 05:40:05;;;;;;;6.68;2.00;;;;;;;22.81;59.37;99644.23;130047;1090;22588;-66
2021/06/20 05:42:34;;;;;;;5.48;1.80;;;;;;;22.94;59.45;99647.91;129948;1090;114416;-66
2021/06/20 05:45:03;;;;;;;3.08;1.70;;;;;;;23.07;59.06;99654.39;130059;1089;23003;-66
2021/06/20 05:47:35;;;;;;;9.00;2.40;;;;;;;23.18;58.60;99652.83;130057;1090;22530;-66
2021/06/20 05:50:05;;;;;;;5.40;2.15;;;;;;;23.23;56.49;99653.42;129918;1090;113939;-66
2021/06/20 05:52:33;;;;;;;6.68;1.90;;;;;;;23.21;56.50;99646.60;130068;1090;22568;-66
2021/06/20 05:55:01;;;;;;;11.88;2.00;;;;;;;23.17;56.09;99649.23;129926;1090;115233;-66
2021/06/20 05:57:29;;;;;;;5.73;1.70;;;;;;;23.13;56.98;99655.80;130073;1090;22654;-67
2021/06/20 05:59:58;;;;;;;6.18;2.10;;;;;;;23.09;56.56;99650.09;129861;1090;113674;-67
2021/06/20 06:02:27;;;;;;;4.00;2.18;;;;;;;23.05;56.68;99659.47;130057;1090;22690;-69
2021/06/20 06:04:56;;;;;;;5.80;1.80;;;;;;;23.01;57.10;99650.17;129997;1090;22533;-73
2021/06/20 06:07:24;;;;;;;2.63;1.73;;;;;;;22.97;57.38;99647.24;129973;1089;114259;-72
2021/06/20 06:09:53;;;;;;;8.65;2.73;;;;;;;22.97;57.22;99654.77;130010;1088;22657;-70
2021/06/20 06:12:23;;;;;;;5.38;2.30;;;;;;;22.97;57.48;99654.77;129969;1090;113915;-71
2021/06/20 06:14:53;;;;;;;6.30;2.10;;;;;;;22.97;57.08;99651.98;130055;1089;23039;-70
2021/06/20 06:17:21;;;;;;;4.85;2.80;;;;;;;23.00;57.58;99656.88;130026;1090;23134;-68
2021/06/20 06:19:50;;;;;;;4.58;1.90;;;;;;;23.02;57.44;99655.39;129917;1090;114529;-69
2021/06/20 06:22:19;;;;;;;4.35;1.93;;;;;;;23.03;57.68;99656.20;130028;1090;23370;-68
2021/06/20 06:24:48;;;;;;;3.18;2.40;;;;;;;23.05;57.91;99671.41;129950;1090;114266;-68
2021/06/20 06:27:17;;;;;;;4.78;1.93;;;;;;;23.08;57.76;99656.02;130053;1089;22677;-69
2021/06/20 06:29:45;;;;;;;6.98;2.03;;;;;;;23.10;57.43;99662.84;130055;1089;22653;-69
2021/06/20 06:32:14;;;;;;;7.85;2.58;;;;;;;23.11;57.46;99663.66;129921;1090;113745;-69
2021/06/20 06:34:42;;;;;;;5.03;1.95;;;;;;;23.09;57.65;99665.95;130094;1090;22512;-69
2021/06/20 06:37:11;;;;;;;7.13;1.88;;;;;;;23.08;57.13;99670.73;129942;1090;113927;-70
2021/06/20 06:39:39;;;;;;;3.55;1.85;;;;;;;23.04;57.02;99663.39;130077;1089;26324;-67
2021/06/20 06:42:08;;;;;;;6.08;2.45;;;;;;;22.98;56.95;99671.11;129974;1090;113954;-68
2021/06/20 06:44:37;;;;;;;3.65;1.65;;;;;;;22.94;56.44;99666.58;130089;1090;22578;-68
2021/06/20 06:47:06;;;;;;;5.90;1.78;;;;;;;22.89;56.40;99670.36;127694;1088;22875;-71
2021/06/20 06:49:34;;;;;;;4.70;1.80;;;;;;;22.88;57.13;99661.20;130002;1090;113873;-71
2021/06/20 06:52:03;;;;;;;4.23;1.58;;;;;;;22.88;57.07;99658.42;130072;1090;22617;-78
2021/06/20 06:54:33;;;;;;;4.00;1.55;;;;;;;22.94;57.67;99658.24;129976;1090;114325;-77
2021/06/20 06:57:01;;;;;;;6.03;2.08;;;;;;;23.05;57.54;99653.91;130066;1089;22630;-78
2021/06/20 06:59:30;;;;;;;4.65;1.63;;;;;;;23.23;57.48;99649.83;130080;1090;24790;-76
2021/06/20 07:01:59;;;;;;;5.93;1.58;;;;;;;23.41;56.57;99647.73;129909;1090;113844;-67
2021/06/20 07:04:27;;;;;;;2.60;1.40;;;;;;;23.58;55.97;99645.64;130080;1090;22599;-69
2021/06/20 07:06:57;;;;;;;11.38;1.65;;;;;;;23.73;55.84;99641.41;129925;1089;113869;-68
2021/06/20 07:09:25;;;;;;;4.40;1.30;;;;;;;23.83;54.30;99634.59;130096;1090;23310;-68
2021/06/20 07:11:54;;;;;;;3.48;1.63;;;;;;;23.86;54.44;99628.34;129962;1090;114168;-68
2021/06/20 07:14:22;;;;;;;5.50;1.68;;;;;;;23.91;52.15;99630.92;130092;1090;22511;-69
2021/06/20 07:16:51;;;;;;;7.25;1.55;;;;;;;23.91;53.26;99626.17;130090;1090;22706;-69
2021/06/20 07:19:20;;;;;;;5.20;1.50;;;;;;;23.92;54.00;99625.02;129893;1090;114316;-68
2021/06/20 07:21:49;;;;;;;5.53;1.73;;;;;;;23.94;53.72;99621.89;130049;1090;22603;-69
2021/06/20 07:24:17;;;;;;;7.00;1.70;;;;;;;23.93;53.73;99628.61;129956;1090;115340;-68
2021/06/20 07:26:45;;;;;;;9.88;1.70;;;;;;;23.90;53.58;99629.30;130070;1089;22622;-69
2021/06/20 07:29:14;;;;;;;5.63;1.45;;;;;;;23.88;54.98;99634.39;130038;1090;22571;-69
2021/06/20 07:31:42;;;;;;;7.25;1.50;;;;;;;23.90;54.14;99635.67;129989;1089;113740;-69
2021/06/20 07:34:11;;;;;;;7.25;1.95;;;;;;;23.99;53.83;99624.44;130081;1090;22559;-68
2021/06/20 07:36:39;;;;;;;8.78;2.00;;;;;;;24.10;54.13;99633.14;129978;1090;114143;-69
2021/06/20 07:39:08;;;;;;;9.38;3.05;;;;;;;24.18;52.88;99637.81;130062;1090;22638;-69
2021/06/20 07:41:38;;;;;;;11.48;2.95;;;;;;;24.20;51.97;99639.10;130048;1088;22685;-69
2021/06/20 07:44:06;;;;;;;6.13;2.00;;;;;;;24.18;52.11;99643.38;129967;1090;113909;-69
2021/06/20 07:46:35;;;;;;;5.30;1.95;;;;;;;24.10;52.25;99633.95;130111;1090;22605;-69
2021/06/20 07:49:04;;;;;;;4.48;1.55;;;;;;;24.02;52.01;99648.80;129941;1090;114182;-69
2021/06/20 07:51:33;;;;;;;6.13;1.78;;;;;;;23.91;52.38;99644.84;130097;1090;22610;-69
2021/06/20 07:54:01;;;;;;;3.08;1.95;;;;;;;23.79;52.04;99628.11;129953;1090;114364;-69
2021/06/20 07:56:30;;;;;;;5.08;1.65;;;;;;;23.66;52.70;99635.58;130077;1089;22649;-69
2021/06/20 07:58:58;;;;;;;3.75;2.23;;;;;;;23.56;53.47;99628.48;130078;1090;22496;-69
2021/06/20 08:01:28;;;;;;;3.98;1.68;;;;;;;23.48;53.84;99620.20;130018;1090;114375;-69
2021/06/20 08:03:58;;;;;;;4.20;1.58;;;;;;;23.42;53.99;99616.80;130078;1090;22559;-69
2021/06/20 08:06:26;;;;;;;3.60;2.13;;;;;;;23.39;55.03;99608.32;130042;1090;114371;-69
2021/06/20 08:08:55;;;;;;;11.05;2.40;;;;;;;23.37;55.35;99599.53;130113;1090;22645;-69
2021/06/20 08:11:24;;;;;;;6.65;2.38;;;;;;;23.41;55.85;99601.27;130096;1089;22580;-69
2021/06/20 08:13:53;;;;;;;5.58;2.45;;;;;;;23.48;55.74;99595.98;129978;1090;113743;-69
2021/06/20 08:16:22;;;;;;;7.28;2.05;;;;;;;23.61;56.51;99583.77;130088;1088;23338;-69
2021/06/20 08:18:50;;;;;;;4.63;1.60;;;;;;;23.76;55.06;99573.95;130018;1090;113773;-69
2021/06/20 08:21:18;;;;;;;1.75;1.40;;;;;;;23.91;54.18;99576.08;130095;1090;22549;-69
2021/06/20 08:23:47;;;;;;;6.25;1.45;;;;;;;24.08;53.44;99575.06;130133;1090;23089;-69
2021/06/20 08:26:16;;;;;;;5.38;1.68;;;;;;;24.24;53.37;99566.83;129992;1089;113909;-69
2021/06/20 08:28:44;;;;;;;5.08;2.05;;;;;;;24.43;52.11;99569.05;130102;1089;23189;-69
2021/06/20 08:31:13;;;;;;;6.03;1.40;;;;;;;24.60;51.89;99564.05;130001;1089;114313;-69
2021/06/20 08:33:41;;;;;;;8.48;1.60;;;;;;;24.75;50.26;99572.84;130094;1090;22557;-69
2021/06/20 08:36:10;;;;;;;2.85;1.70;;;;;;;24.88;49.25;99566.08;129996;1090;114886;-69
2021/06/20 08:38:39;;;;;;;9.93;1.75;;;;;;;24.96;49.70;99565.15;130125;1090;22625;-68
2021/06/20 08:41:07;;;;;;;5.85;1.60;;;;;;;25.05;48.93;99567.81;130090;1090;22694;-68
2021/06/20 08:43:36;;;;;;;10.55;1.83;;;;;;;25.09;48.46;99555.61;129963;1090;113963;-68
2021/06/20 08:46:04;;;;;;;12.45;2.55;;;;;;;25.13;48.04;99561.27;130053;1090;22650;-68
2021/06/20 08:48:33;;;;;;;5.93;1.58;;;;;;;25.15;48.10;99556.15;129962;1088;114158;-68
2021/06/20 08:51:03;;;;;;;7.30;1.83;;;;;;;25.19;48.34;99557.07;130064;1090;22577;-68
2021/06/20 08:53:36;;;;;;;6.53;1.30;;;;;;;25.24;47.00;99557.64;130089;1090;23277;-68
2021/06/20 08:56:05;;;;;;;4.35;1.40;;;;;;;25.28;47.41;99555.75;129958;1090;114339;-68
2021/06/20 08:58:34;;;;;;;7.23;2.23;;;;;;;25.32;47.13;99553.88;130098;1090;22511;-68
2021/06/20 09:01:05;;;;;;;3.58;1.93;;;;;;;25.41;48.42;99548.13;129983;1090;114172;-68
2021/06/20 09:03:40;;;;;;;5.68;1.48;;;;;;;25.49;47.83;99547.17;130040;1090;23335;-68
2021/06/20 09:06:19;;;;;;;5.47;1.73;;;;;;;25.59;47.08;99543.86;129974;1089;114353;-68
2021/06/20 09:08:53;;;;;;;6.08;1.60;;;;;;;25.68;48.04;99546.53;130080;1093;22532;-68
2021/06/20 09:11:38;;;;;;;4.55;1.80;;;;;;;25.76;47.35;99542.74;130116;1090;22552;-68
2021/06/20 09:14:24;;;;;;;6.20;1.55;;;;;;;25.84;46.68;99535.35;129979;1090;113581;-68
2021/06/20 09:16:55;;;;;;;2.65;1.33;;;;;;;25.92;45.98;99534.38;130029;1090;22549;-68
2021/06/20 09:19:33;;;;;;;3.50;1.90;;;;;;;26.02;46.21;99534.64;130008;1090;113765;-69
2021/06/20 09:22:05;;;;;;;1.70;1.60;;;;;;;26.15;45.63;99538.14;130002;1090;22577;-69
2021/06/20 09:24:33;;;;;;;8.98;1.40;;;;;;;26.24;45.04;99538.79;129955;1090;114168;-68
2021/06/20 09:27:02;;;;;;;6.18;1.88;;;;;;;26.32;45.14;99540.59;130071;1090;22692;-69
2021/06/20 09:29:35;;;;;;;2.93;1.43;;;;;;;26.39;44.42;99526.81;130042;1090;23672;-68
2021/06/20 09:32:07;;;;;;;4.25;1.50;;;;;;;26.45;44.78;99530.12;129950;1088;114130;-69
2021/06/20 09:34:46;;;;;;;8.30;2.10;;;;;;;26.49;45.00;99530.20;130023;1090;22536;-69
2021/06/20 09:37:15;;;;;;;8.98;1.80;;;;;;;26.53;45.21;99523.53;129975;1093;113764;-69
2021/06/20 09:39:44;;;;;;;5.05;1.55;;;;;;;26.58;45.21;99522.42;130082;1090;22550;-68
2021/06/20 09:42:17;;;;;;;4.48;1.90;;;;;;;26.63;44.60;99513.77;129987;1090;113960;-69
2021/06/20 09:44:49;;;;;;;10.03;1.95;;;;;;;26.68;43.88;99511.50;130060;1090;22546;-69
2021/06/20 09:47:19;;;;;;;15.13;2.78;;;;;;;26.70;43.41;99503.53;130082;1090;23366;-69
2021/06/20 09:49:50;;;;;;;7.28;1.48;;;;;;;26.75;43.29;99510.83;129955;1090;113931;-69
2021/06/20 09:52:32;;;;;;;4.93;1.93;;;;;;;26.79;43.88;99506.13;130092;1090;23065;-69
2021/06/20 09:55:02;;;;;;;6.20;2.15;;;;;;;26.86;43.60;99505.46;129913;1090;113758;-68
2021/06/20 09:57:40;;;;;;;6.25;1.88;;;;;;;26.93;42.69;99516.81;130074;1088;22588;-69
2021/06/20 10:00:09;;;;;;;12.80;2.25;;;;;;;27.00;42.25;99516.97;129934;1090;113824;-69
2021/06/20 10:02:42;;;;;;;10.30;2.03;;;;;;;27.06;41.43;99502.34;130054;1090;22578;-69
2021/06/20 10:05:11;;;;;;;6.98;1.93;;;;;;;27.12;41.02;99507.65;130027;1090;22579;-69
2021/06/20 10:07:40;;;;;;;10.70;2.53;;;;;;;27.16;39.84;99500.12;129995;1089;113988;-69
2021/06/20 10:10:10;;;;;;;7.05;2.48;;;;;;;27.21;40.66;99505.42;130045;1092;23845;-68
2021/06/20 10:12:39;;;;;;;9.50;1.88;;;;;;;27.27;40.85;99499.14;129990;1089;113771;-69
2021/06/20 10:15:12;;;;;;;5.35;2.28;;;;;;;27.32;41.22;99500.84;129945;1090;22586;-68
2021/06/20 10:17:45;;;;;;;5.65;1.53;;;;;;;27.37;40.08;99501.36;130087;1088;22651;-69
2021/06/20 10:20:14;;;;;;;8.00;1.75;;;;;;;27.45;39.45;99493.89;129928;1090;112826;-69
2021/06/20 10:22:44;;;;;;;10.45;1.85;;;;;;;27.48;38.00;99487.55;130040;1090;23452;-69
2021/06/20 10:25:25;;;;;;;2.23;1.48;;;;;;;27.53;38.64;99486.45;129928;1090;113759;-69
2021/06/20 10:28:13;;;;;;;4.93;1.60;;;;;;;27.61;37.01;99488.21;130121;1090;24822;-69
2021/06/20 10:30:43;;;;;;;18.85;2.50;;;;;;;27.68;35.84;99480.77;129943;1089;113773;-69
2021/06/20 10:33:23;;;;;;;9.53;1.73;;;;;;;27.74;35.41;99492.45;130077;1090;22571;-69
2021/06/20 10:36:06;;;;;;;7.95;1.58;;;;;;;27.74;35.33;99482.05;129906;1090;113879;-64
2021/06/20 10:38:44;;;;;;;5.90;1.60;;;;;;;27.76;36.09;99479.70;130113;1090;22628;-69
2021/06/20 10:41:23;;;;;;;8.75;1.75;;;;;;;27.78;35.12;99468.13;130070;1093;22498;-69
2021/06/20 10:44:01;;;;;;;12.33;2.38;;;;;;;27.83;35.82;99472.61;129986;1090;113771;-69
2021/06/20 10:46:29;;;;;;;6.85;2.10;;;;;;;27.88;36.21;99481.48;130021;1090;22573;-69
2021/06/20 10:48:59;;;;;;;7.05;1.95;;;;;;;27.92;35.32;99473.16;129966;1089;113777;-69
2021/06/20 10:51:31;;;;;;;4.10;1.40;;;;;;;27.96;35.40;99476.83;130050;1090;22549;-69
2021/06/20 10:53:59;;;;;;;7.98;2.30;;;;;;;28.00;35.75;99472.06;130034;1090;114170;-70
2021/06/20 10:56:58;;;;;;;7.93;3.35;;;;;;;28.06;35.72;99473.38;130071;1089;22547;-69
2021/06/20 10:59:26;;;;;;;9.95;3.28;;;;;;;28.08;36.12;99466.22;130112;1089;22567;-69
2021/06/20 11:01:55;;;;;;;7.35;1.70;;;;;;;28.12;35.24;99469.08;129949;1090;113770;-69
2021/06/20 11:04:23;;;;;;;9.20;1.55;;;;;;;28.16;35.40;99470.73;130070;1090;22602;-69
2021/06/20 11:06:54;;;;;;;6.58;1.93;;;;;;;28.18;35.30;99461.14;129960;1090;113777;-69
2021/06/20 11:09:23;;;;;;;5.03;1.93;;;;;;;28.16;36.10;99461.52;130049;1090;22591;-69
2021/06/20 11:11:53;;;;;;;14.10;2.43;;;;;;;28.20;36.30;99456.01;130055;1090;22686;-66
2021/06/20 11:14:44;;;;;;;7.70;1.30;;;;;;;28.22;35.43;99454.45;129986;1090;23640;-69
2021/06/20 11:17:12;;;;;;;5.03;1.60;;;;;;;28.23;35.41;99455.27;130029;1089;22543;-69
2021/06/20 11:19:41;;;;;;;6.18;1.35;;;;;;;28.22;35.71;99440.44;130009;1090;114224;-69
2021/06/20 11:22:11;;;;;;;3.75;1.78;;;;;;;28.24;36.18;99454.08;130033;1089;22597;-69
2021/06/20 11:24:40;;;;;;;6.18;1.50;;;;;;;28.26;35.94;99449.72;130035;1089;113992;-69
2021/06/20 11:27:13;;;;;;;12.70;1.75;;;;;;;28.30;35.46;99452.55;130042;1090;22584;-69
2021/06/20 11:29:49;;;;;;;2.33;1.20;;;;;;;28.31;35.51;99454.16;130105;1090;22779;-69
2021/06/20 11:32:34;;;;;;;11.28;2.00;;;;;;;28.30;36.16;99461.77;129920;1090;113600;-69
2021/06/20 11:35:50;;;;;;;6.48;1.70;;;;;;;28.29;34.80;99465.75;125562;1093;22864;-69